Log in  \/ 
x
x

Ramona Operations

Additional info
  • Operations Officer: Julie Keane
  • Phone Number: 760-703-1967
  • E-Mail: rnmops@plusoneflyers.org
Comments
  • No comments found

Leave your comments

0 Character restriction
Your text should be more than 10 characters
terms and condition.
Special Instructions

To access the field, press #### to call for entry.

Ramona Weather

[source: ADDS]
METAR
KRNM 180653Z 00000KT 10SM CLR 16/06 A2999 RMK AO2 SLP138 T01560056 $ =
KNKX 180655Z 00000KT 10SM CLR 21/09 A2995 RMK AO2 SLP134 T02060094 $ =
TAF
TAF KNKX 1803/1903 VRB05KT 9999 FEW150 SCT250 QNH2991INS BECMG 1818/1820 28008KT 9999 FEW150 QNH2986INS BECMG 1900/1902 VRB05KT 9999 FEW150 QNH2989INS T18/1811Z T29/1821Z =
SR / SS: 13:55 / 01:10 UTC ( 2017-10-18)

Ramona Operations Map